Time;durP1;ratioP1;P1;durP2;ratioP2;P2;SDS_P1;SDS_P2;PMS_P1;PMS_P2;Temp;Humidity;BMP_temperature;BMP_pressure;BME280_temperature;BME280_humidity;BME280_pressure;Samples;Min_cycle;Max_cycle;Signal;HPM_P1;HPM_P2
2022/11/16 00:01:14;;;;;;;17.73;9.40;;;;;;;10.51;73.56;100123.94;5037147;28;20055;-68
2022/11/16 00:03:40;;;;;;;14.18;8.93;;;;;;;10.37;72.89;100131.78;5046577;28;20492;-68
2022/11/16 00:06:08;;;;;;;14.38;8.73;;;;;;;9.85;74.25;100126.16;5047342;28;20489;-68
2022/11/16 00:08:37;;;;;;;17.23;9.30;;;;;;;9.81;74.81;100122.84;5036606;28;20044;-67
2022/11/16 00:11:05;;;;;;;18.35;10.52;;;;;;;10.07;74.62;100116.94;5046123;28;20048;-67
2022/11/16 00:13:32;;;;;;;21.05;10.93;;;;;;;10.20;74.75;100115.28;5047503;28;20757;-67
2022/11/16 00:15:59;;;;;;;22.27;10.70;;;;;;;10.38;75.65;100099.41;5037437;28;20573;-68
2022/11/16 00:18:27;;;;;;;17.48;10.20;;;;;;;10.35;75.75;100100.41;5046310;28;20048;-68
2022/11/16 00:20:54;;;;;;;17.35;10.00;;;;;;;10.19;75.07;100103.16;5047182;28;20047;-67
2022/11/16 00:23:20;;;;;;;17.63;9.88;;;;;;;9.89;74.86;100097.06;5037476;28;20048;-67
2022/11/16 00:25:47;;;;;;;16.05;9.57;;;;;;;9.86;74.60;100101.66;5042384;28;20052;-67
2022/11/16 00:28:13;;;;;;;18.85;9.77;;;;;;;9.61;74.62;100102.22;5047386;28;20044;-67
2022/11/16 00:30:40;;;;;;;18.17;10.27;;;;;;;9.67;74.95;100101.88;5037419;28;20484;-67
2022/11/16 00:33:07;;;;;;;18.02;10.77;;;;;;;9.69;75.73;100095.63;5047184;28;20040;-67
2022/11/16 00:35:39;;;;;;;17.92;10.55;;;;;;;9.93;76.00;100092.50;5047138;28;20055;-67
2022/11/16 00:38:06;;;;;;;21.73;10.95;;;;;;;9.85;78.03;100089.47;5047117;28;20041;-67
2022/11/16 00:40:32;;;;;;;18.73;10.20;;;;;;;9.53;80.18;100084.38;5055326;28;20496;-68
2022/11/16 00:42:59;;;;;;;18.95;10.73;;;;;;;9.62;80.79;100081.19;5065923;28;20049;-68
2022/11/16 00:45:25;;;;;;;17.65;10.18;;;;;;;9.07;83.34;100072.19;5047269;28;20053;-67
2022/11/16 00:47:52;;;;;;;18.45;10.25;;;;;;;8.74;85.46;100073.13;5046560;28;20158;-67
2022/11/16 00:50:18;;;;;;;20.63;10.63;;;;;;;9.06;84.78;100075.72;5047065;28;20045;-67
2022/11/16 00:52:46;;;;;;;19.60;11.57;;;;;;;9.25;83.44;100064.16;5037197;28;20045;-67
2022/11/16 00:55:13;;;;;;;20.23;10.20;;;;;;;8.99;84.70;100070.00;5046139;28;20052;-67
2022/11/16 00:57:39;;;;;;;18.73;10.93;;;;;;;9.11;83.66;100061.47;5047427;28;20679;-67
2022/11/16 01:00:07;;;;;;;21.40;10.85;;;;;;;9.22;83.36;100053.03;5036817;28;20059;-67
2022/11/16 01:02:34;;;;;;;19.23;11.15;;;;;;;9.16;83.05;100058.63;5045843;28;20681;-67
2022/11/16 01:05:00;;;;;;;19.25;11.20;;;;;;;9.34;82.15;100057.56;5045911;28;20054;-67
2022/11/16 01:07:27;;;;;;;19.50;10.52;;;;;;;9.44;81.52;100057.88;5036848;28;20036;-67
2022/11/16 01:09:55;;;;;;;18.42;10.85;;;;;;;9.36;81.34;100054.84;5046183;28;20607;-67
2022/11/16 01:12:21;;;;;;;20.95;11.32;;;;;;;9.36;81.85;100053.06;5047369;28;20500;-67
2022/11/16 01:14:48;;;;;;;23.88;11.18;;;;;;;9.35;81.72;100054.00;5046834;28;20051;-68
2022/11/16 01:17:15;;;;;;;17.92;10.95;;;;;;;9.51;81.25;100049.56;5052665;28;20493;-68
2022/11/16 01:19:41;;;;;;;20.83;10.60;;;;;;;9.43;81.48;100056.16;5050792;28;20048;-67
2022/11/16 01:22:08;;;;;;;21.58;11.52;;;;;;;9.73;80.17;100060.47;5040744;28;20045;-67
2022/11/16 01:24:34;;;;;;;19.98;10.88;;;;;;;9.69;79.29;100051.13;5050321;28;20563;-67
2022/11/16 01:27:02;;;;;;;18.73;11.60;;;;;;;9.61;79.81;100058.56;5052209;28;20056;-67
2022/11/16 01:29:30;;;;;;;18.40;11.27;;;;;;;9.40;81.00;100054.59;5042579;28;20531;-68
2022/11/16 01:31:57;;;;;;;21.83;11.68;;;;;;;9.33;81.43;100055.88;5062000;28;20105;-68
2022/11/16 01:34:24;;;;;;;21.60;11.10;;;;;;;8.79;84.42;100055.41;5052573;28;20041;-67
2022/11/16 01:36:50;;;;;;;21.67;12.15;;;;;;;8.92;83.41;100054.75;5040467;28;20036;-67
2022/11/16 01:39:17;;;;;;;21.08;11.70;;;;;;;8.79;84.57;100055.41;5049317;28;20432;-67
2022/11/16 01:41:44;;;;;;;21.38;12.63;;;;;;;8.89;84.77;100053.16;5051490;28;20051;-67
2022/11/16 01:44:44;;;;;;;23.15;12.48;;;;;;;8.76;85.24;100059.97;5042029;28;20049;-68
2022/11/16 01:47:14;;;;;;;23.48;12.38;;;;;;;9.06;83.66;100053.03;5039821;28;20052;-67
2022/11/16 01:49:43;;;;;;;23.08;12.65;;;;;;;8.67;85.45;100056.09;5048956;28;20047;-67
2022/11/16 01:52:13;;;;;;;21.08;12.10;;;;;;;8.24;88.23;100051.47;5050253;28;20048;-67
2022/11/16 01:54:43;;;;;;;24.95;12.07;;;;;;;8.76;86.26;100039.91;5040130;28;20048;-67
2022/11/16 01:57:13;;;;;;;23.92;13.10;;;;;;;8.76;85.48;100033.81;5048624;28;20523;-67
2022/11/16 01:59:42;;;;;;;26.50;13.93;;;;;;;8.66;85.88;100028.28;5046072;28;20492;-67
2022/11/16 02:02:09;;;;;;;25.45;14.20;;;;;;;8.76;86.05;100025.97;5049995;28;20050;-67
2022/11/16 02:04:37;;;;;;;24.48;13.13;;;;;;;8.89;84.38;100020.94;5048996;28;20052;-67
2022/11/16 02:07:12;;;;;;;23.95;12.65;;;;;;;9.04;83.76;100022.69;5040036;28;20053;-67
2022/11/16 02:09:53;;;;;;;26.38;13.18;;;;;;;8.96;83.82;100023.13;5054192;28;20047;-67
2022/11/16 02:12:37;;;;;;;28.77;13.52;;;;;;;8.94;84.11;100029.38;5043962;28;20072;-67
2022/11/16 02:15:12;;;;;;;23.48;13.55;;;;;;;9.08;83.61;100021.59;5049392;28;20052;-67
2022/11/16 02:17:47;;;;;;;24.17;13.25;;;;;;;9.22;82.97;100013.78;5038803;28;20071;-66
2022/11/16 02:20:30;;;;;;;23.70;13.27;;;;;;;9.21;82.20;100012.94;5029553;28;20048;-67
2022/11/16 02:23:20;;;;;;;24.00;13.13;;;;;;;8.72;84.40;100004.41;5027463;28;20048;-66
2022/11/16 02:25:56;;;;;;;24.98;12.85;;;;;;;8.45;86.08;99998.09;5049657;28;20043;-66
2022/11/16 02:28:36;;;;;;;24.90;13.05;;;;;;;8.78;84.69;100001.47;5050734;28;20052;-66
2022/11/16 02:31:07;;;;;;;24.17;12.82;;;;;;;8.88;83.63;100008.78;5048940;28;20041;-67
2022/11/16 02:33:38;;;;;;;22.35;13.18;;;;;;;9.09;82.31;100010.19;5032823;28;20583;-67
2022/11/16 02:36:09;;;;;;;25.15;13.57;;;;;;;9.16;82.37;100012.34;5048428;28;20051;-66
2022/11/16 02:38:39;;;;;;;25.27;12.80;;;;;;;9.36;81.04;100013.81;5038618;28;20044;-66
2022/11/16 02:41:12;;;;;;;23.73;12.35;;;;;;;9.56;80.16;100000.44;5049310;28;20052;-67
2022/11/16 02:43:41;;;;;;;;;;;;;;;9.38;80.05;100006.75;5049721;28;20047;-67
2022/11/16 02:46:13;;;;;;;22.58;12.60;;;;;;;9.34;80.05;100005.25;5039039;28;19920;-67
2022/11/16 02:48:44;;;;;;;21.63;12.73;;;;;;;9.47;79.83;99998.34;5047926;28;20049;-66
2022/11/16 02:51:11;;;;;;;22.92;12.80;;;;;;;9.24;80.44;100012.75;5039140;28;20052;-66
2022/11/16 02:53:42;;;;;;;21.55;12.45;;;;;;;9.06;81.41;100012.97;5049451;28;20102;-66
2022/11/16 02:56:12;;;;;;;24.90;12.77;;;;;;;9.02;81.43;100004.44;5044335;28;20045;-66
2022/11/16 02:58:39;;;;;;;24.85;12.90;;;;;;;9.33;80.35;100008.78;5033441;28;20271;-67
2022/11/16 03:01:12;;;;;;;22.88;13.85;;;;;;;9.12;81.10;100016.09;5047032;28;20044;-66
2022/11/16 03:03:43;;;;;;;23.42;13.55;;;;;;;9.31;80.14;100021.13;5047906;28;20485;-66
2022/11/16 03:06:16;;;;;;;24.95;12.98;;;;;;;9.40;79.52;100024.94;5047000;28;20594;-66
2022/11/16 03:08:44;;;;;;;;;;;;;;;9.64;79.02;100023.53;5047834;28;20059;-67
2022/11/16 03:13:59;;;;;;;20.95;11.98;;;;;;;9.81;77.14;100025.97;5068402;28;20089;-67
2022/11/16 03:16:31;;;;;;;20.70;12.27;;;;;;;9.85;76.45;100016.16;5056559;28;20047;-67
2022/11/16 03:19:01;;;;;;;20.23;11.65;;;;;;;9.83;76.48;100013.63;5057242;28;20075;-67
2022/11/16 03:21:36;;;;;;;20.95;12.05;;;;;;;9.27;79.32;100019.59;5029050;28;20040;-67
2022/11/16 03:24:04;;;;;;;25.33;13.18;;;;;;;9.17;79.94;100021.03;5030985;28;20056;-67
2022/11/16 03:26:38;;;;;;;22.98;13.52;;;;;;;8.79;81.32;100018.81;5047212;28;20044;-67
2022/11/16 03:29:12;;;;;;;23.77;12.60;;;;;;;8.96;81.25;100019.66;5037796;28;20052;-67
2022/11/16 03:31:45;;;;;;;25.02;12.98;;;;;;;9.03;81.16;100023.59;5047179;28;20072;-66
2022/11/16 03:34:16;;;;;;;22.58;12.75;;;;;;;9.16;79.77;100027.22;5044460;28;20102;-66
2022/11/16 03:36:44;;;;;;;22.17;12.38;;;;;;;9.03;80.77;100018.38;5048303;28;20056;-66
2022/11/16 03:39:18;;;;;;;19.23;12.02;;;;;;;9.00;79.92;100027.25;5046537;28;20543;-66
2022/11/16 03:41:47;;;;;;;24.73;13.40;;;;;;;9.17;80.21;100040.19;5037835;28;20044;-67
2022/11/16 03:44:15;;;;;;;23.77;12.60;;;;;;;9.01;79.81;100034.16;5047855;28;20119;-66
2022/11/16 03:46:45;;;;;;;21.33;11.77;;;;;;;9.02;79.50;100029.75;5048042;28;20047;-66
2022/11/16 03:49:12;;;;;;;21.50;12.48;;;;;;;8.74;80.71;100027.84;5054075;28;20055;-66
2022/11/16 03:51:38;;;;;;;23.60;12.40;;;;;;;8.68;81.16;100015.94;5067409;28;20415;-66
2022/11/16 03:54:05;;;;;;;23.17;12.65;;;;;;;8.47;82.36;100013.69;5063838;28;20048;-66
2022/11/16 03:56:32;;;;;;;22.42;12.32;;;;;;;8.45;82.52;100003.31;5035324;28;20040;-66
2022/11/16 03:58:58;;;;;;;24.45;13.15;;;;;;;8.63;82.01;100007.53;5047263;28;20048;-66
2022/11/16 04:01:25;;;;;;;21.63;12.73;;;;;;;8.57;81.91;100005.25;5047656;28;20059;-66
2022/11/16 04:03:53;;;;;;;23.95;12.45;;;;;;;8.45;82.56;100008.56;5037553;28;20550;-66
2022/11/16 04:25:46;;;;;;;27.05;14.10;;;;;;;9.40;77.27;100067.66;5037567;28;20067;-66
2022/11/16 04:28:13;;;;;;;25.67;13.20;;;;;;;8.90;79.72;100057.47;5047473;28;20479;-66
2022/11/16 04:38:55;;;;;;;21.10;11.75;;;;;;;9.17;78.05;100040.19;5046986;28;20047;-66
2022/11/16 04:44:05;;;;;;;22.75;12.75;;;;;;;8.90;79.18;100040.91;5046740;28;20619;-66
2022/11/16 04:49:15;;;;;;;24.88;12.95;;;;;;;8.61;80.43;100038.13;5065889;28;20124;-66
2022/11/16 04:51:43;;;;;;;27.52;12.77;;;;;;;8.69;80.28;100041.16;5069515;28;20725;-66
2022/11/16 04:54:10;;;;;;;23.70;11.73;;;;;;;8.60;80.76;100044.31;5059613;28;20714;-66
2022/11/16 04:56:36;;;;;;;22.05;12.80;;;;;;;8.84;79.84;100036.88;5056562;28;20520;-66
2022/11/16 04:59:03;;;;;;;23.27;13.38;;;;;;;8.92;79.16;100039.91;5050666;28;20055;-66
2022/11/16 05:04:13;;;;;;;23.13;12.95;;;;;;;8.50;81.03;100037.06;5049812;28;20059;-66
2022/11/16 05:06:39;;;;;;;26.13;13.38;;;;;;;8.41;81.90;100042.75;5040877;28;20048;-66
2022/11/16 05:09:07;;;;;;;25.88;12.70;;;;;;;8.34;82.08;100044.00;5051377;28;20052;-66
2022/11/16 05:11:34;;;;;;;24.42;12.63;;;;;;;8.10;83.52;100041.72;5050106;28;20052;-66
2022/11/16 05:14:01;;;;;;;24.25;12.45;;;;;;;8.09;83.75;100039.22;5040809;28;20056;-66
2022/11/16 05:16:28;;;;;;;21.23;12.75;;;;;;;7.75;85.78;100051.41;5050897;28;20055;-66
2022/11/16 05:21:35;;;;;;;23.98;12.77;;;;;;;7.23;88.59;100050.56;5055579;28;20144;-66
2022/11/16 05:26:47;;;;;;;24.48;13.63;;;;;;;7.54;87.47;100051.66;5040234;28;20161;-66
2022/11/16 05:29:13;;;;;;;20.05;10.82;;;;;;;7.50;87.39;100043.09;5049341;28;20045;-66
2022/11/16 05:31:39;;;;;;;23.38;13.90;;;;;;;7.78;85.81;100043.41;5051079;28;20041;-66
2022/11/16 05:34:06;;;;;;;23.85;12.90;;;;;;;7.54;86.86;100044.63;5040192;28;20075;-66
2022/11/16 05:36:32;;;;;;;22.60;11.80;;;;;;;7.21;88.58;100038.50;5049330;28;20492;-66
2022/11/16 05:38:59;;;;;;;27.95;13.55;;;;;;;7.44;88.21;100047.78;5050072;28;20056;-66
2022/11/16 05:41:25;;;;;;;22.83;11.93;;;;;;;7.44;87.74;100051.25;5040208;28;20056;-66
2022/11/16 05:43:54;;;;;;;28.85;13.70;;;;;;;7.42;88.51;100053.09;5049598;28;20044;-66
2022/11/16 05:46:20;;;;;;;28.05;13.40;;;;;;;7.49;88.32;100051.03;5049823;28;20044;-66
2022/11/16 05:48:47;;;;;;;25.85;12.80;;;;;;;7.53;88.04;100053.41;5040007;28;20053;-66
2022/11/16 05:51:13;;;;;;;25.67;12.88;;;;;;;7.55;88.40;100043.72;5049072;28;20040;-66
2022/11/16 05:53:40;;;;;;;28.38;13.98;;;;;;;7.56;88.52;100047.19;5068262;28;20051;-66
2022/11/16 05:56:07;;;;;;;26.60;14.18;;;;;;;7.06;90.55;100039.25;5036982;28;20408;-66
2022/11/16 05:58:33;;;;;;;29.27;14.35;;;;;;;7.39;89.24;100040.19;5048939;28;20492;-66
2022/11/16 06:01:01;;;;;;;25.75;12.93;;;;;;;7.60;88.32;100030.47;5049932;28;20041;-66
2022/11/16 06:03:28;;;;;;;28.83;14.63;;;;;;;7.90;87.48;100028.91;5037200;28;20485;-66
2022/11/16 06:05:54;;;;;;;27.50;14.73;;;;;;;8.05;86.53;100027.25;5040961;28;20040;-66
2022/11/16 06:08:21;;;;;;;29.83;14.30;;;;;;;8.00;86.63;100032.72;5049983;28;20067;-66
2022/11/16 06:10:47;;;;;;;27.00;14.07;;;;;;;8.36;85.15;100029.94;5039906;28;20048;-66
2022/11/16 06:13:14;;;;;;;30.23;15.35;;;;;;;8.46;84.81;100028.50;5050119;28;20052;-66
2022/11/16 06:15:41;;;;;;;28.00;15.10;;;;;;;8.35;85.43;100027.44;5055809;28;20381;-66
2022/11/16 06:18:09;;;;;;;25.98;14.45;;;;;;;8.11;86.72;100026.91;5039923;28;20660;-66
2022/11/16 06:20:38;;;;;;;28.98;15.27;;;;;;;8.13;85.95;100027.69;5049638;28;20526;-66
2022/11/16 06:23:05;;;;;;;30.20;15.43;;;;;;;8.34;86.44;100029.19;5048703;28;20044;-66
2022/11/16 06:25:32;;;;;;;32.05;16.50;;;;;;;8.32;85.85;100029.25;5034999;28;20523;-66
2022/11/16 06:27:59;;;;;;;29.05;15.88;;;;;;;8.41;85.92;100038.38;5048850;28;20052;-66
2022/11/16 06:30:25;;;;;;;36.28;17.13;;;;;;;8.09;87.37;100034.81;5048643;28;20045;-66
2022/11/16 06:32:52;;;;;;;30.48;15.52;;;;;;;7.99;88.23;100043.22;5037477;28;20044;-66
2022/11/16 06:35:20;;;;;;;30.92;15.77;;;;;;;8.31;87.50;100039.81;5047973;28;20376;-66
2022/11/16 06:37:46;;;;;;;33.08;15.43;;;;;;;8.40;86.56;100033.22;5049271;28;20055;-66
2022/11/16 06:40:13;;;;;;;26.85;13.55;;;;;;;8.15;87.33;100034.50;5038877;28;20053;-66
2022/11/16 06:42:40;;;;;;;29.45;14.05;;;;;;;7.83;89.28;100030.13;5049582;28;20056;-66
2022/11/16 06:45:07;;;;;;;28.50;14.88;;;;;;;7.89;89.27;100028.97;5049316;28;20044;-66
2022/11/16 06:47:34;;;;;;;29.65;14.38;;;;;;;7.67;90.45;100040.50;5040305;28;20056;-66
2022/11/16 06:50:01;;;;;;;26.83;13.98;;;;;;;7.32;93.27;100039.66;5048192;28;20056;-66
2022/11/16 06:52:29;;;;;;;32.83;15.60;;;;;;;7.01;95.49;100034.25;5049083;28;20040;-66
2022/11/16 06:54:55;;;;;;;34.20;16.38;;;;;;;7.49;93.76;100031.00;5039147;28;20098;-66
2022/11/16 06:57:22;;;;;;;29.77;15.90;;;;;;;7.39;93.78;100028.94;5047512;28;20051;-66
2022/11/16 06:59:48;;;;;;;31.83;14.43;;;;;;;7.46;93.00;100023.34;5048265;28;20047;-66
2022/11/16 07:02:15;;;;;;;27.90;14.98;;;;;;;7.17;95.05;100022.16;5039177;28;20052;-66
2022/11/16 07:04:43;;;;;;;33.70;14.90;;;;;;;7.21;95.22;100030.66;5048666;28;20040;-66
2022/11/16 07:07:09;;;;;;;33.42;15.60;;;;;;;7.05;96.29;100020.16;5050870;28;20056;-66
2022/11/16 07:09:37;;;;;;;38.33;18.10;;;;;;;7.16;95.94;100032.69;5058508;28;20118;-66
2022/11/16 07:12:04;;;;;;;29.92;16.17;;;;;;;7.07;96.51;100025.28;5068250;28;20052;-66
2022/11/16 07:14:30;;;;;;;29.48;14.05;;;;;;;7.55;94.05;100040.28;5068396;28;20048;-66
2022/11/16 07:16:57;;;;;;;35.80;15.93;;;;;;;7.40;93.91;100041.03;5058460;28;20047;-66
2022/11/16 07:19:23;;;;;;;43.63;17.75;;;;;;;7.32;95.57;100044.03;5059112;28;20040;-66
2022/11/16 07:21:49;;;;;;;39.38;15.35;;;;;;;7.66;93.42;100046.63;5030482;28;20492;-66
2022/11/16 07:24:16;;;;;;;35.53;16.15;;;;;;;7.20;95.52;100035.06;5021758;28;20511;-67
2022/11/16 07:26:44;;;;;;;32.28;13.75;;;;;;;7.30;95.44;100033.69;5043344;28;20041;-64
2022/11/16 07:29:10;;;;;;;41.42;17.35;;;;;;;7.35;95.26;100043.91;5042643;28;20041;-65
2022/11/16 07:31:37;;;;;;;32.88;17.38;;;;;;;7.32;95.41;100039.66;5037072;28;20047;-66
2022/11/16 07:34:04;;;;;;;37.80;16.38;;;;;;;7.49;94.25;100044.03;5053053;28;20054;-66
2022/11/16 07:36:30;;;;;;;25.55;11.40;;;;;;;7.66;93.72;100040.56;5067541;28;20044;-65
2022/11/16 07:38:57;;;;;;;28.15;12.05;;;;;;;7.72;93.32;100045.50;5058102;28;20130;-65
2022/11/16 07:41:23;;;;;;;38.95;15.68;;;;;;;7.62;94.15;100042.50;5070470;28;20326;-65
2022/11/16 07:43:51;;;;;;;33.38;14.43;;;;;;;7.71;94.08;100039.44;5047726;28;20045;-65
2022/11/16 07:46:19;;;;;;;35.83;15.45;;;;;;;7.81;93.50;100042.41;5039030;28;20080;-66
2022/11/16 07:48:46;;;;;;;37.40;15.15;;;;;;;7.70;93.92;100040.34;5049828;28;20161;-65
2022/11/16 07:51:15;;;;;;;42.55;16.23;;;;;;;7.85;92.91;100030.88;5054811;28;20041;-65
2022/11/16 07:53:42;;;;;;;35.78;14.55;;;;;;;7.45;95.06;100029.47;5032646;28;20047;-66
2022/11/16 07:56:10;;;;;;;35.70;15.07;;;;;;;7.64;94.14;100032.00;5047169;28;20052;-66
2022/11/16 07:58:37;;;;;;;26.92;11.60;;;;;;;7.72;94.13;100022.84;5050177;28;20061;-66
2022/11/16 08:01:06;;;;;;;33.83;13.90;;;;;;;7.60;94.50;100030.47;5044957;28;20044;-66
2022/11/16 08:03:34;;;;;;;30.27;14.65;;;;;;;7.69;94.20;100017.78;5046855;28;20045;-66
2022/11/16 08:06:02;;;;;;;33.80;15.60;;;;;;;7.98;92.80;100020.66;5059630;28;20381;-66
2022/11/16 08:08:28;;;;;;;37.22;16.38;;;;;;;7.98;92.84;100018.88;5037117;28;20052;-66
2022/11/16 08:10:59;;;;;;;34.25;14.00;;;;;;;7.98;92.32;100008.44;5046431;28;20048;-66
2022/11/16 08:13:25;;;;;;;39.08;16.67;;;;;;;8.13;91.69;100006.81;5048038;28;20055;-66
2022/11/16 08:15:52;;;;;;;39.85;16.45;;;;;;;8.02;91.93;100004.75;5037281;28;20465;-66
2022/11/16 08:18:19;;;;;;;35.15;15.95;;;;;;;8.04;93.04;100002.06;5046694;28;20048;-66
2022/11/16 08:20:46;;;;;;;42.53;15.80;;;;;;;8.34;91.29;100004.84;5047316;28;20048;-66
2022/11/16 08:23:12;;;;;;;45.88;15.60;;;;;;;8.69;89.28;100001.97;5037322;28;20060;-66
2022/11/16 08:25:39;;;;;;;34.65;15.75;;;;;;;8.82;88.16;100003.91;5045920;28;20040;-66
2022/11/16 08:28:05;;;;;;;34.38;15.88;;;;;;;8.84;87.96;99994.19;5047882;28;20052;-66
2022/11/16 08:30:32;;;;;;;31.58;15.07;;;;;;;9.12;86.49;100000.41;5037140;28;20049;-67
2022/11/16 08:32:58;;;;;;;35.75;16.85;;;;;;;9.51;85.47;100004.25;5045913;28;20063;-67
2022/11/16 08:35:27;;;;;;;37.00;16.63;;;;;;;9.63;84.41;99998.28;5047256;28;20047;-67
2022/11/16 08:37:53;;;;;;;34.38;15.85;;;;;;;9.15;85.82;100005.44;5037342;28;20113;-66
2022/11/16 08:40:19;;;;;;;38.53;13.80;;;;;;;9.23;85.32;100002.41;5058247;28;20742;-66
2022/11/16 08:42:46;;;;;;;34.58;16.30;;;;;;;8.96;86.92;100004.81;5050379;28;20140;-66
2022/11/16 08:45:12;;;;;;;34.05;15.60;;;;;;;9.06;86.65;100003.34;5037683;28;20501;-66
2022/11/16 08:47:39;;;;;;;30.48;15.75;;;;;;;8.96;87.54;100009.19;5046364;28;20443;-65
2022/11/16 08:50:06;;;;;;;34.97;16.17;;;;;;;9.18;87.11;100012.28;5053479;28;20432;-65
2022/11/16 08:52:33;;;;;;;31.80;15.40;;;;;;;9.23;85.94;100018.09;5035290;28;20045;-65
2022/11/16 08:55:00;;;;;;;33.83;15.23;;;;;;;8.80;87.84;100012.66;5036091;28;20063;-66
2022/11/16 08:57:26;;;;;;;33.42;16.02;;;;;;;8.77;88.89;100015.47;5047738;28;20048;-66
2022/11/16 08:59:53;;;;;;;37.67;18.08;;;;;;;8.83;88.41;100014.28;5036779;28;20041;-66
2022/11/16 09:02:24;;;;;;;33.53;15.50;;;;;;;8.57;88.82;100010.47;5046964;28;20048;-66
2022/11/16 09:04:50;;;;;;;37.13;15.50;;;;;;;8.87;88.29;100010.53;5046781;28;20481;-66
2022/11/16 09:07:17;;;;;;;29.65;15.30;;;;;;;8.93;88.13;100018.06;5036607;28;20055;-66
2022/11/16 09:09:45;;;;;;;27.10;13.90;;;;;;;8.58;88.38;100022.63;5046319;28;20055;-66
2022/11/16 09:12:11;;;;;;;29.70;16.08;;;;;;;8.73;88.90;100019.16;5062426;28;20044;-66
2022/11/16 09:14:37;;;;;;;27.23;15.02;;;;;;;8.97;88.04;100016.13;5052082;28;20048;-66
2022/11/16 09:17:04;;;;;;;30.20;15.70;;;;;;;9.04;86.49;100017.44;5045888;28;20540;-66
2022/11/16 09:19:30;;;;;;;29.20;16.08;;;;;;;9.25;86.09;100027.53;5047237;28;20561;-66
2022/11/16 09:21:57;;;;;;;28.38;15.50;;;;;;;9.01;86.66;100026.31;5046200;28;20420;-66
2022/11/16 09:24:23;;;;;;;29.05;15.35;;;;;;;8.84;87.46;100015.94;5045770;28;20488;-66
2022/11/16 09:26:51;;;;;;;27.13;14.80;;;;;;;8.53;88.76;100021.19;5047507;28;20428;-67
2022/11/16 09:29:17;;;;;;;29.17;14.85;;;;;;;8.67;89.14;100021.28;5037679;28;20051;-66
2022/11/16 09:31:44;;;;;;;26.50;14.93;;;;;;;8.79;88.17;100020.63;5045856;28;20123;-66
2022/11/16 09:34:10;;;;;;;31.05;15.07;;;;;;;9.23;86.29;100013.72;5046588;28;20056;-66
2022/11/16 09:36:37;;;;;;;27.35;15.02;;;;;;;9.29;85.84;100025.56;5048874;28;20054;-66
2022/11/16 09:39:03;;;;;;;30.17;15.85;;;;;;;8.80;87.59;100014.44;5067077;28;20525;-66
2022/11/16 09:41:41;;;;;;;31.15;16.13;;;;;;;9.06;86.77;100013.81;5069745;28;20450;-66
2022/11/16 09:44:26;;;;;;;29.05;14.38;;;;;;;9.29;86.21;100022.97;5059376;28;20046;-66
2022/11/16 09:46:55;;;;;;;29.38;15.13;;;;;;;9.34;85.46;100020.94;5052017;28;20044;-66
2022/11/16 09:49:25;;;;;;;28.23;15.77;;;;;;;9.55;84.67;100022.28;5039675;28;20052;-66
2022/11/16 09:51:55;;;;;;;26.90;15.50;;;;;;;9.92;83.05;100020.94;5069681;28;20404;-66
2022/11/16 09:54:25;;;;;;;31.25;15.90;;;;;;;9.58;84.08;100019.50;5050743;28;20044;-66
2022/11/16 09:56:57;;;;;;;35.28;16.98;;;;;;;8.93;86.48;100015.44;5044835;28;20412;-65
2022/11/16 09:59:28;;;;;;;29.15;13.63;;;;;;;9.03;86.71;100015.75;5050177;28;20409;-65
2022/11/16 10:01:58;;;;;;;30.83;15.63;;;;;;;8.87;87.98;100012.34;5044682;28;20109;-66
2022/11/16 10:04:35;;;;;;;32.42;16.05;;;;;;;8.95;87.23;100017.97;5064457;28;20089;-66
2022/11/16 10:07:05;;;;;;;22.75;12.75;;;;;;;8.75;87.95;100027.78;5030291;28;20106;-66
2022/11/16 10:09:32;;;;;;;29.75;15.00;;;;;;;8.91;87.40;100019.06;5049548;28;20044;-66
2022/11/16 10:12:10;;;;;;;34.45;17.63;;;;;;;9.10;87.21;100014.47;5049943;28;20064;-66
2022/11/16 10:15:06;;;;;;;28.83;15.48;;;;;;;9.48;85.20;100010.50;5045364;28;20106;-65
2022/11/16 10:17:42;;;;;;;29.75;14.30;;;;;;;9.27;85.41;100019.59;5036617;28;20040;-66
2022/11/16 10:20:29;;;;;;;34.25;16.73;;;;;;;9.13;86.03;100011.69;5047080;28;20048;-65
2022/11/16 10:23:05;;;;;;;30.15;15.85;;;;;;;9.38;85.18;100011.13;5030778;28;20070;-66
2022/11/16 10:25:40;;;;;;;32.40;16.73;;;;;;;9.51;85.08;100012.94;5049536;28;20040;-65
2022/11/16 10:28:25;;;;;;;29.95;15.98;;;;;;;9.68;83.89;100007.53;5039856;28;20041;-66
2022/11/16 10:30:59;;;;;;;33.85;16.52;;;;;;;9.82;83.54;100011.13;5045938;28;20462;-65
2022/11/16 10:33:34;;;;;;;32.03;16.63;;;;;;;9.61;84.57;100008.84;5039772;28;20040;-65
2022/11/16 10:36:08;;;;;;;34.60;18.15;;;;;;;9.14;86.34;100010.75;5069016;28;20536;-66
2022/11/16 10:38:35;;;;;;;38.80;18.33;;;;;;;9.37;85.59;100012.91;5043879;28;20041;-66
2022/11/16 10:41:05;;;;;;;32.22;17.40;;;;;;;9.64;84.89;100002.59;5041386;28;20055;-66
2022/11/16 10:43:32;;;;;;;38.08;17.17;;;;;;;9.70;83.95;99999.59;5047406;28;20049;-65
2022/11/16 10:46:12;;;;;;;35.40;18.38;;;;;;;9.99;83.48;100003.91;5039705;28;20393;-66
2022/11/16 10:48:48;;;;;;;38.30;18.17;;;;;;;9.88;83.90;99995.88;5047783;28;20055;-65
2022/11/16 10:51:14;;;;;;;38.75;18.23;;;;;;;9.75;83.96;100008.84;5039141;28;20049;-65
2022/11/16 10:53:43;;;;;;;42.25;18.65;;;;;;;9.74;84.01;99995.88;5048177;28;20052;-65
2022/11/16 10:56:16;;;;;;;37.55;17.77;;;;;;;9.38;85.98;99998.06;5044065;28;20048;-65
2022/11/16 10:58:54;;;;;;;31.73;16.90;;;;;;;8.96;88.00;99993.50;5038384;28;20040;-65
2022/11/16 11:01:31;;;;;;;44.97;19.40;;;;;;;9.30;86.88;100003.72;5048404;28;20055;-65
2022/11/16 11:04:13;;;;;;;39.50;18.50;;;;;;;9.79;84.51;99997.25;5029062;28;20086;-65
2022/11/16 11:06:40;;;;;;;39.60;19.38;;;;;;;9.61;85.27;99990.50;5048762;28;20483;-65
2022/11/16 11:09:16;;;;;;;36.53;18.35;;;;;;;9.45;85.31;99999.38;5056715;28;20052;-65
2022/11/16 11:14:26;;;;;;;41.65;20.58;;;;;;;9.46;87.44;99999.25;5053340;28;20166;-65
2022/11/16 11:16:54;;;;;;;40.58;19.08;;;;;;;9.05;87.28;100003.47;5064990;28;20055;-64
2022/11/16 11:19:26;;;;;;;43.03;19.50;;;;;;;9.11;88.10;99993.47;5068864;28;20044;-64
2022/11/16 11:21:57;;;;;;;45.10;19.60;;;;;;;9.53;86.09;99990.16;5052414;28;20052;-64
2022/11/16 11:24:23;;;;;;;45.85;20.73;;;;;;;9.51;85.06;99992.00;5032593;28;20126;-64
2022/11/16 11:26:53;;;;;;;44.80;21.92;;;;;;;9.57;85.12;99996.03;5038776;28;20090;-64
2022/11/16 11:29:25;;;;;;;46.20;22.00;;;;;;;9.55;85.45;99993.50;5047515;28;20048;-64
2022/11/16 11:31:55;;;;;;;44.08;19.27;;;;;;;9.66;84.53;99995.47;5026158;28;20040;-64
2022/11/16 11:34:24;;;;;;;44.30;21.40;;;;;;;9.72;84.63;99985.47;5042583;28;20055;-64
2022/11/16 11:36:54;;;;;;;44.00;20.63;;;;;;;9.41;85.64;99990.88;5067539;28;20051;-64
2022/11/16 11:39:32;;;;;;;50.35;23.10;;;;;;;9.44;85.68;99990.69;5068362;28;20488;-64
2022/11/16 11:42:22;;;;;;;49.75;23.27;;;;;;;9.66;84.82;99992.88;5066399;28;20055;-64
2022/11/16 11:44:56;;;;;;;51.15;21.00;;;;;;;9.06;87.03;99997.28;5051371;28;20495;-65
2022/11/16 11:47:33;;;;;;;57.80;24.17;;;;;;;8.85;88.06;99998.50;5031452;28;20046;-66
2022/11/16 11:50:06;;;;;;;44.05;17.90;;;;;;;8.59;90.10;99995.56;5031442;28;20036;-65
2022/11/16 11:52:37;;;;;;;54.08;23.13;;;;;;;8.49;91.08;99993.56;5039526;28;20055;-65
2022/11/16 11:55:07;;;;;;;60.53;23.80;;;;;;;8.65;90.74;99987.38;5039216;28;20056;-65
2022/11/16 11:57:38;;;;;;;50.92;22.67;;;;;;;8.53;91.31;99985.47;5047005;28;20049;-65
2022/11/16 12:00:08;;;;;;;62.28;25.70;;;;;;;8.38;92.32;99985.47;5049384;28;20411;-66
2022/11/16 12:02:55;;;;;;;53.28;23.55;;;;;;;8.23;92.93;99987.94;5052917;28;20127;-65
2022/11/16 12:05:50;;;;;;;60.08;24.05;;;;;;;8.23;93.79;99984.50;5046861;28;20052;-65
2022/11/16 12:08:31;;;;;;;53.70;21.80;;;;;;;8.10;94.13;99976.47;5046662;28;20075;-65
2022/11/16 12:11:05;;;;;;;60.17;22.50;;;;;;;8.27;93.86;99981.63;5037765;28;20052;-65
2022/11/16 12:13:50;;;;;;;53.40;22.73;;;;;;;8.36;93.88;99982.91;5050817;28;20123;-66
2022/11/16 12:16:26;;;;;;;62.58;25.98;;;;;;;8.71;92.77;99980.97;5063592;28;20116;-66